Time;durP1;ratioP1;P1;durP2;ratioP2;P2;SDS_P1;SDS_P2;PMS_P1;PMS_P2;Temp;Humidity;BMP_temperature;BMP_pressure;BME280_temperature;BME280_humidity;BME280_pressure;Samples;Min_cycle;Max_cycle;Signal;HPM_P1;HPM_P2
2022/09/13 00:00:40;;;;;;;4.07;2.95;;;;;24.20;100852.00;;;;5089167;28;20198;-77
2022/09/13 00:03:09;;;;;;;3.45;3.10;;;;;24.20;100850.00;;;;5079801;28;20203;-77
2022/09/13 00:05:37;;;;;;;3.10;2.75;;;;;24.20;100857.00;;;;5075756;28;20278;-77
2022/09/13 00:08:04;;;;;;;4.00;2.70;;;;;24.20;100860.00;;;;5089432;28;20751;-77
2022/09/13 00:10:34;;;;;;;4.05;2.38;;;;;24.10;100845.00;;;;5089155;28;20191;-77
2022/09/13 00:13:02;;;;;;;5.30;2.85;;;;;24.10;100848.00;;;;5077870;28;20198;-77
2022/09/13 00:15:29;;;;;;;3.55;3.08;;;;;24.10;100843.00;;;;5069284;28;20594;-77
2022/09/13 00:17:57;;;;;;;3.92;3.03;;;;;24.10;100838.00;;;;5082213;28;20578;-77
2022/09/13 00:20:26;;;;;;;3.63;2.60;;;;;24.10;100848.00;;;;5088511;28;20194;-77
2022/09/13 00:22:53;;;;;;;4.15;3.40;;;;;24.10;100845.00;;;;5077797;28;20199;-77
2022/09/13 00:25:21;;;;;;;3.60;3.10;;;;;24.10;100844.00;;;;5071802;28;20203;-77
2022/09/13 00:27:50;;;;;;;4.68;3.03;;;;;24.10;100833.00;;;;5073103;28;20198;-77
2022/09/13 00:30:17;;;;;;;4.07;3.47;;;;;24.10;100825.00;;;;5072255;28;20226;-77
2022/09/13 00:32:44;;;;;;;4.22;3.38;;;;;24.10;100824.00;;;;5079805;28;20258;-77
2022/09/13 00:35:11;;;;;;;3.30;2.78;;;;;24.10;100822.00;;;;5070890;28;20233;-78
2022/09/13 00:37:39;;;;;;;3.10;2.80;;;;;24.10;100831.00;;;;5069815;28;20684;-77
2022/09/13 00:40:08;;;;;;;4.95;3.05;;;;;24.10;100829.00;;;;5073985;28;20195;-78
2022/09/13 00:42:36;;;;;;;4.22;3.20;;;;;24.00;100833.00;;;;5071274;28;20195;-77
2022/09/13 00:45:16;;;;;;;3.13;2.83;;;;;23.90;100827.00;;;;5089227;28;20574;-78
2022/09/13 00:47:47;;;;;;;3.10;2.80;;;;;24.00;100833.00;;;;5075445;28;20195;-77
2022/09/13 00:50:20;;;;;;;7.43;3.75;;;;;24.00;100829.00;;;;5070771;28;20199;-78
2022/09/13 00:52:54;;;;;;;3.50;3.20;;;;;24.00;100832.00;;;;5080480;28;20202;-78
2022/09/13 00:55:25;;;;;;;3.85;3.45;;;;;24.00;100825.00;;;;5080015;28;20564;-78
2022/09/13 00:57:55;;;;;;;3.70;2.90;;;;;24.00;100824.00;;;;5082699;28;20734;-77
2022/09/13 01:00:24;;;;;;;3.28;2.83;;;;;24.00;100828.00;;;;5069036;28;20661;-77
2022/09/13 01:02:55;;;;;;;3.80;3.00;;;;;24.00;100832.00;;;;5073063;28;20207;-78
2022/09/13 01:05:26;;;;;;;3.00;2.67;;;;;24.00;100825.00;;;;5084684;28;20202;-77
2022/09/13 01:07:54;;;;;;;2.92;2.72;;;;;24.00;100820.00;;;;5076855;28;20444;-78
2022/09/13 01:10:22;;;;;;;2.95;2.70;;;;;24.00;100821.00;;;;5078015;28;20232;-78
2022/09/13 01:12:55;;;;;;;3.22;2.58;;;;;24.00;100817.00;;;;5081642;28;20659;-77
2022/09/13 01:15:24;;;;;;;3.65;2.72;;;;;24.00;100821.00;;;;5072837;28;20227;-78
2022/09/13 01:17:54;;;;;;;3.20;2.70;;;;;24.00;100824.00;;;;5070342;28;20203;-78
2022/09/13 01:20:28;;;;;;;4.78;2.90;;;;;24.00;100818.00;;;;5069342;28;20195;-78
2022/09/13 01:23:25;;;;;;;7.07;2.88;;;;;23.90;100812.00;;;;5068815;28;20197;-78
2022/09/13 01:26:31;;;;;;;3.40;3.10;;;;;23.90;100827.00;;;;5070007;28;20199;-77
2022/09/13 01:29:35;;;;;;;4.43;2.65;;;;;23.80;100831.00;;;;5068436;28;20596;-77
2022/09/13 01:32:15;;;;;;;4.88;3.20;;;;;23.90;100830.00;;;;5056744;28;20210;-78
2022/09/13 01:34:57;;;;;;;4.40;3.05;;;;;23.90;100827.00;;;;5083816;28;20216;-78
2022/09/13 01:37:50;;;;;;;3.10;2.80;;;;;23.80;100818.00;;;;5086825;28;20194;-78
2022/09/13 01:40:31;;;;;;;4.18;2.45;;;;;23.90;100823.00;;;;5084198;28;20680;-78
2022/09/13 01:43:22;;;;;;;2.67;2.47;;;;;23.90;100822.00;;;;5079252;28;20213;-78
2022/09/13 01:46:00;;;;;;;2.85;2.58;;;;;23.90;100828.00;;;;5071836;28;20198;-78
2022/09/13 01:48:42;;;;;;;3.20;2.85;;;;;23.90;100826.00;;;;5075954;28;20731;-77
2022/09/13 01:51:16;;;;;;;2.83;2.55;;;;;23.90;100826.00;;;;5069236;28;20195;-78
2022/09/13 01:53:54;;;;;;;2.95;2.65;;;;;23.90;100817.00;;;;5072506;28;20194;-77
2022/09/13 01:56:27;;;;;;;3.38;2.92;;;;;23.90;100811.00;;;;5078032;28;20714;-77
2022/09/13 01:58:58;;;;;;;4.13;2.95;;;;;23.90;100818.00;;;;5083749;28;20209;-77
2022/09/13 02:01:31;;;;;;;3.28;2.97;;;;;23.90;100802.00;;;;5081566;28;20202;-77
2022/09/13 02:04:04;;;;;;;3.38;3.08;;;;;23.90;100806.00;;;;5068964;28;20202;-77
2022/09/13 02:06:36;;;;;;;3.30;3.00;;;;;23.90;100806.00;;;;5079793;28;20305;-77
2022/09/13 02:09:09;;;;;;;2.58;2.35;;;;;23.90;100805.00;;;;5085824;28;20194;-77
2022/09/13 02:11:39;;;;;;;3.40;2.65;;;;;23.90;100813.00;;;;5082849;28;20201;-78
2022/09/13 02:14:11;;;;;;;2.85;2.65;;;;;24.00;100814.00;;;;5085874;28;20676;-78
2022/09/13 02:16:42;;;;;;;5.15;2.92;;;;;23.90;100812.00;;;;5082691;28;20226;-77
2022/09/13 02:19:15;;;;;;;3.45;3.08;;;;;23.90;100810.00;;;;5089149;28;20202;-78
2022/09/13 02:21:46;;;;;;;3.33;3.03;;;;;23.90;100805.00;;;;5077655;28;20205;-78
2022/09/13 02:24:17;;;;;;;4.13;3.38;;;;;24.00;100815.00;;;;5087393;28;20198;-78
2022/09/13 02:26:48;;;;;;;3.88;3.30;;;;;24.00;100816.00;;;;5068764;28;20198;-78
2022/09/13 02:29:19;;;;;;;3.78;3.35;;;;;23.90;100813.00;;;;5068595;28;20219;-78
2022/09/13 02:31:51;;;;;;;3.72;2.78;;;;;24.00;100810.00;;;;5072544;28;20197;-78
2022/09/13 02:34:25;;;;;;;3.17;2.47;;;;;23.90;100814.00;;;;5087812;28;20210;-79
2022/09/13 02:36:55;;;;;;;2.95;2.70;;;;;24.00;100813.00;;;;5081105;28;20222;-78
2022/09/13 02:39:26;;;;;;;4.05;3.22;;;;;23.90;100807.00;;;;5087391;28;20202;-78
2022/09/13 02:41:56;;;;;;;5.50;3.97;;;;;24.00;100815.00;;;;5078169;28;20708;-78
2022/09/13 02:44:28;;;;;;;3.67;3.38;;;;;24.00;100821.00;;;;5067694;28;20274;-78
2022/09/13 02:47:10;;;;;;;4.78;3.55;;;;;23.90;100826.00;;;;5069999;28;20201;-78
2022/09/13 02:49:50;;;;;;;6.22;3.40;;;;;23.90;100827.00;;;;5067496;28;20270;-78
2022/09/13 02:52:24;;;;;;;3.47;3.17;;;;;23.90;100822.00;;;;5073326;28;20282;-78
2022/09/13 02:54:54;;;;;;;3.30;3.00;;;;;24.00;100814.00;;;;5072535;28;20218;-78
2022/09/13 02:57:27;;;;;;;3.78;3.08;;;;;23.90;100809.00;;;;5084828;28;20228;-78
2022/09/13 02:59:54;;;;;;;3.47;3.17;;;;;24.00;100809.00;;;;5087511;28;20205;-78
2022/09/13 03:02:26;;;;;;;3.35;2.90;;;;;23.90;100809.00;;;;5084315;28;20187;-78
2022/09/13 03:04:56;;;;;;;3.13;2.83;;;;;23.90;100813.00;;;;5086364;28;20241;-78
2022/09/13 03:07:23;;;;;;;4.00;3.28;;;;;24.00;100816.00;;;;5072996;28;20199;-78
2022/09/13 03:09:54;;;;;;;3.80;3.40;;;;;23.90;100817.00;;;;5068364;28;20198;-78
2022/09/13 03:12:43;;;;;;;4.05;3.65;;;;;23.80;100819.00;;;;5071266;28;20190;-78
2022/09/13 03:15:20;;;;;;;4.40;4.00;;;;;23.90;100824.00;;;;5067834;28;20570;-78
2022/09/13 03:17:57;;;;;;;6.68;3.35;;;;;23.90;100822.00;;;;5081474;28;20762;-78
2022/09/13 03:20:37;;;;;;;3.42;3.10;;;;;23.90;100826.00;;;;5084643;28;20194;-78
2022/09/13 03:23:22;;;;;;;5.72;3.33;;;;;23.90;100824.00;;;;5072645;28;20195;-78
2022/09/13 03:26:13;;;;;;;4.40;3.33;;;;;23.80;100823.00;;;;5074487;28;20198;-79
2022/09/13 03:28:50;;;;;;;4.50;3.17;;;;;23.90;100823.00;;;;5086885;28;20218;-78
2022/09/13 03:31:21;;;;;;;3.72;3.35;;;;;23.90;100821.00;;;;5080775;28;20510;-78
2022/09/13 03:33:56;;;;;;;3.60;3.30;;;;;23.80;100818.00;;;;5082933;28;20222;-78
2022/09/13 03:36:33;;;;;;;5.78;3.50;;;;;23.90;100815.00;;;;5066855;28;20788;-78
2022/09/13 03:39:06;;;;;;;3.90;3.40;;;;;23.90;100813.00;;;;5066763;28;20529;-79
2022/09/13 03:41:39;;;;;;;4.00;3.28;;;;;23.90;100816.00;;;;5073494;28;20186;-78
2022/09/13 03:44:11;;;;;;;4.40;3.45;;;;;23.90;100818.00;;;;5087727;28;20272;-79
2022/09/13 03:46:42;;;;;;;7.68;4.60;;;;;23.90;100821.00;;;;5082184;28;20724;-79
2022/09/13 03:49:12;;;;;;;5.35;4.32;;;;;23.90;100814.00;;;;5084495;28;20203;-78
2022/09/13 03:51:42;;;;;;;6.10;4.60;;;;;23.90;100814.00;;;;5069826;28;20194;-78
2022/09/13 03:54:15;;;;;;;4.75;3.95;;;;;23.90;100808.00;;;;5071536;28;20209;-79
2022/09/13 03:56:42;;;;;;;5.32;4.55;;;;;23.90;100809.00;;;;5067087;28;20226;-79
2022/09/13 03:59:09;;;;;;;5.40;4.45;;;;;23.90;100808.00;;;;5073568;28;20664;-79
2022/09/13 04:01:37;;;;;;;4.95;4.28;;;;;23.90;100801.00;;;;5084443;28;20981;-79
2022/09/13 04:04:04;;;;;;;6.65;4.70;;;;;23.90;100807.00;;;;5089583;28;20210;-79
2022/09/13 04:06:31;;;;;;;7.07;5.22;;;;;23.90;100806.00;;;;5070472;28;20191;-79
2022/09/13 04:09:00;;;;;;;7.07;5.40;;;;;23.90;100796.00;;;;5070145;28;20199;-79
2022/09/13 04:11:29;;;;;;;7.40;5.20;;;;;23.90;100799.00;;;;5075603;28;20659;-79
2022/09/13 04:13:58;;;;;;;6.13;4.95;;;;;23.90;100795.00;;;;5075636;28;20275;-79
2022/09/13 04:16:25;;;;;;;6.60;4.50;;;;;23.90;100797.00;;;;5083170;28;20855;-78
2022/09/13 04:18:52;;;;;;;6.60;4.25;;;;;23.90;100801.00;;;;5079339;28;20206;-79
2022/09/13 04:21:20;;;;;;;5.38;4.55;;;;;23.90;100800.00;;;;5084923;28;20202;-78
2022/09/13 04:23:50;;;;;;;4.95;4.00;;;;;23.80;100804.00;;;;5076640;28;20275;-79
2022/09/13 04:26:20;;;;;;;5.18;4.22;;;;;23.80;100815.00;;;;5070701;28;20192;-77
2022/09/13 04:28:47;;;;;;;7.15;5.25;;;;;23.80;100817.00;;;;5070025;28;20234;-77
2022/09/13 04:31:15;;;;;;;7.43;5.03;;;;;23.80;100817.00;;;;5075236;28;20202;-77
2022/09/13 04:33:43;;;;;;;5.93;4.68;;;;;23.80;100823.00;;;;5077622;28;20211;-77
2022/09/13 04:36:10;;;;;;;5.03;4.25;;;;;23.80;100822.00;;;;5071552;28;20198;-77
2022/09/13 04:38:37;;;;;;;5.70;4.38;;;;;23.80;100825.00;;;;5080017;28;20195;-77
2022/09/13 04:41:05;;;;;;;4.97;4.13;;;;;23.80;100827.00;;;;5078758;28;20202;-77
2022/09/13 04:43:34;;;;;;;4.85;3.67;;;;;23.80;100828.00;;;;5074625;28;20190;-78
2022/09/13 04:46:01;;;;;;;6.53;4.55;;;;;23.80;100833.00;;;;5083937;28;20214;-77
2022/09/13 04:48:28;;;;;;;5.45;4.25;;;;;23.80;100845.00;;;;5081071;28;20202;-77
2022/09/13 04:51:03;;;;;;;4.57;3.28;;;;;23.70;100839.00;;;;5070026;28;20202;-77
2022/09/13 04:53:31;;;;;;;5.75;4.55;;;;;23.80;100844.00;;;;5079728;28;20206;-78
2022/09/13 04:56:01;;;;;;;7.07;4.15;;;;;23.70;100844.00;;;;5073624;28;20203;-77
2022/09/13 04:58:28;;;;;;;6.63;4.85;;;;;23.70;100844.00;;;;5071411;28;20264;-77
2022/09/13 05:01:02;;;;;;;4.85;3.80;;;;;23.70;100838.00;;;;5076027;28;20206;-77
2022/09/13 05:03:31;;;;;;;5.68;4.57;;;;;23.70;100859.00;;;;5079570;28;20190;-77
2022/09/13 05:06:03;;;;;;;5.32;4.13;;;;;23.70;100849.00;;;;5073397;28;20201;-77
2022/09/13 05:08:30;;;;;;;4.85;4.25;;;;;23.70;100851.00;;;;5088667;28;20210;-78
2022/09/13 05:11:01;;;;;;;6.15;4.40;;;;;23.70;100857.00;;;;5078097;28;20688;-78
2022/09/13 05:13:29;;;;;;;5.13;4.35;;;;;23.70;100850.00;;;;5071386;28;20201;-78
2022/09/13 05:15:56;;;;;;;15.00;4.03;;;;;23.70;100852.00;;;;5083252;28;20195;-78
2022/09/13 05:18:26;;;;;;;4.38;3.92;;;;;23.70;100847.00;;;;5072380;28;20218;-78
2022/09/13 05:20:55;;;;;;;5.38;3.80;;;;;23.70;100847.00;;;;5074813;28;20444;-78
2022/09/13 05:23:22;;;;;;;5.53;4.55;;;;;23.70;100853.00;;;;5078803;28;20194;-78
2022/09/13 05:25:53;;;;;;;5.60;3.78;;;;;23.70;100855.00;;;;5069269;28;20195;-78
2022/09/13 05:28:21;;;;;;;5.85;4.13;;;;;23.80;100864.00;;;;5075277;28;20198;-77
2022/09/13 05:30:56;;;;;;;5.25;4.32;;;;;23.70;100864.00;;;;5072454;28;20199;-77
2022/09/13 05:33:24;;;;;;;7.55;4.47;;;;;23.80;100865.00;;;;5072541;28;20731;-79
2022/09/13 05:35:52;;;;;;;5.97;5.03;;;;;23.80;100865.00;;;;5072844;28;20668;-78
2022/09/13 05:38:20;;;;;;;7.22;5.18;;;;;23.80;100875.00;;;;5068420;28;20227;-78
2022/09/13 05:40:47;;;;;;;4.45;3.90;;;;;23.80;100869.00;;;;5068140;28;20198;-78
2022/09/13 05:43:15;;;;;;;4.97;4.50;;;;;23.80;100866.00;;;;5068414;28;20229;-78
2022/09/13 05:45:42;;;;;;;6.47;5.15;;;;;23.80;100864.00;;;;5075628;28;20529;-77
2022/09/13 05:48:10;;;;;;;5.90;4.28;;;;;23.80;100869.00;;;;5069810;28;20199;-77
2022/09/13 05:50:41;;;;;;;7.05;4.85;;;;;23.80;100871.00;;;;5078359;28;20638;-77
2022/09/13 05:53:09;;;;;;;6.30;4.90;;;;;23.80;100883.00;;;;5073733;28;20679;-78
2022/09/13 05:55:36;;;;;;;6.30;5.30;;;;;23.80;100876.00;;;;5079740;28;20198;-79
2022/09/13 05:58:03;;;;;;;6.97;4.90;;;;;23.90;100880.00;;;;5084076;28;20217;-78
2022/09/13 06:00:32;;;;;;;6.20;5.07;;;;;23.90;100881.00;;;;5075760;28;20203;-79
2022/09/13 06:02:59;;;;;;;6.78;4.93;;;;;23.90;100879.00;;;;5081017;28;20210;-79
2022/09/13 06:05:26;;;;;;;5.32;4.63;;;;;23.90;100880.00;;;;5069241;28;20199;-79
2022/09/13 06:07:55;;;;;;;6.10;4.13;;;;;23.90;100875.00;;;;5072803;28;20195;-79
2022/09/13 06:10:22;;;;;;;5.28;4.78;;;;;23.90;100880.00;;;;5074784;28;20195;-79
2022/09/13 06:12:51;;;;;;;5.38;4.47;;;;;23.90;100880.00;;;;5077536;28;20191;-80
2022/09/13 06:15:19;;;;;;;5.35;4.55;;;;;24.00;100871.00;;;;5074134;28;20228;-80
2022/09/13 06:17:47;;;;;;;6.47;4.22;;;;;24.00;100869.00;;;;5077403;28;20214;-80
2022/09/13 06:20:14;;;;;;;5.13;4.22;;;;;24.00;100870.00;;;;5074645;28;20198;-80
2022/09/13 06:22:41;;;;;;;6.22;4.22;;;;;24.00;100873.00;;;;5075180;28;20207;-80
2022/09/13 06:25:10;;;;;;;5.80;4.28;;;;;24.00;100874.00;;;;5072421;28;20199;-80
2022/09/13 06:27:37;;;;;;;7.53;5.00;;;;;24.10;100870.00;;;;5078022;28;20299;-80
2022/09/13 06:30:07;;;;;;;5.60;4.85;;;;;24.10;100874.00;;;;5076276;28;20222;-80
2022/09/13 06:32:35;;;;;;;8.13;5.65;;;;;24.10;100883.00;;;;5072844;28;20218;-80
2022/09/13 06:35:02;;;;;;;5.95;5.35;;;;;24.20;100870.00;;;;5078485;28;20203;-80
2022/09/13 06:37:30;;;;;;;10.20;6.25;;;;;24.20;100877.00;;;;5075550;28;20223;-80
2022/09/13 06:39:58;;;;;;;9.27;7.30;;;;;24.20;100875.00;;;;5074283;28;20222;-79
2022/09/13 06:42:26;;;;;;;8.13;5.75;;;;;24.30;100874.00;;;;5076612;28;20223;-80
2022/09/13 06:44:54;;;;;;;10.40;7.38;;;;;24.30;100873.00;;;;5079912;28;20205;-80
2022/09/13 06:47:21;;;;;;;11.48;7.80;;;;;24.40;100875.00;;;;5076058;28;20194;-80
2022/09/13 06:49:48;;;;;;;9.88;7.78;;;;;24.40;100875.00;;;;5079098;28;20257;-80
2022/09/13 06:52:15;;;;;;;9.23;7.65;;;;;24.40;100879.00;;;;5078777;28;20193;-80
2022/09/13 06:54:43;;;;;;;14.90;8.82;;;;;24.50;100875.00;;;;5075752;28;20190;-80
2022/09/13 06:57:10;;;;;;;10.32;8.30;;;;;24.50;100877.00;;;;5072405;28;20653;-81
2022/09/13 06:59:39;;;;;;;9.57;7.65;;;;;24.50;100879.00;;;;5072530;28;20199;-80
2022/09/13 07:02:06;;;;;;;9.48;8.18;;;;;24.60;100877.00;;;;5072674;28;20205;-80
2022/09/13 07:04:34;;;;;;;10.02;8.65;;;;;24.70;100879.00;;;;5084825;28;20203;-80
2022/09/13 07:07:01;;;;;;;10.48;9.05;;;;;24.70;100874.00;;;;5077166;28;20209;-79
2022/09/13 07:09:28;;;;;;;12.00;7.70;;;;;24.80;100878.00;;;;5077214;28;20197;-79
2022/09/13 07:11:56;;;;;;;12.18;9.15;;;;;24.80;100872.00;;;;5076430;28;20214;-79
2022/09/13 07:14:26;;;;;;;9.45;8.25;;;;;24.80;100872.00;;;;5067489;28;20213;-79
2022/09/13 07:16:55;;;;;;;13.32;8.02;;;;;24.90;100874.00;;;;5076512;28;20209;-79
2022/09/13 07:19:25;;;;;;;14.18;9.18;;;;;24.90;100878.00;;;;5084891;28;20656;-79
2022/09/13 07:21:53;;;;;;;11.68;8.65;;;;;25.00;100879.00;;;;5067038;28;20272;-79
2022/09/13 07:24:21;;;;;;;11.07;8.85;;;;;25.00;100874.00;;;;5075040;28;20205;-79
2022/09/13 07:26:49;;;;;;;11.32;9.05;;;;;25.10;100878.00;;;;5069755;28;20202;-79
2022/09/13 07:29:18;;;;;;;11.10;8.30;;;;;25.10;100879.00;;;;5078137;28;20242;-79
2022/09/13 07:31:48;;;;;;;12.77;9.38;;;;;25.20;100878.00;;;;5069014;28;20227;-79
2022/09/13 07:34:19;;;;;;;12.65;9.05;;;;;25.20;100887.00;;;;5087905;28;20221;-79
2022/09/13 07:36:47;;;;;;;11.43;8.68;;;;;25.30;100885.00;;;;5078583;28;20203;-80
2022/09/13 07:39:16;;;;;;;10.15;8.93;;;;;25.40;100893.00;;;;5071384;28;20215;-80
2022/09/13 07:41:45;;;;;;;12.52;8.80;;;;;25.40;100889.00;;;;5072171;28;20217;-81
2022/09/13 07:44:16;;;;;;;11.00;9.25;;;;;25.50;100888.00;;;;5079368;28;20537;-81
2022/09/13 07:46:43;;;;;;;15.20;9.38;;;;;25.50;100885.00;;;;5087469;28;20210;-80
2022/09/13 07:49:12;;;;;;;12.13;8.40;;;;;25.60;100893.00;;;;5085624;28;20190;-80
2022/09/13 07:51:43;;;;;;;9.35;7.63;;;;;25.60;100884.00;;;;5077982;28;20202;-80
2022/09/13 07:54:12;;;;;;;8.95;8.05;;;;;25.70;100893.00;;;;5078215;28;21069;-80
2022/09/13 07:56:41;;;;;;;9.02;6.78;;;;;25.80;100900.00;;;;5080973;28;20201;-81
2022/09/13 07:59:12;;;;;;;11.65;8.05;;;;;25.90;100898.00;;;;5071900;28;20232;-81
2022/09/13 08:01:41;;;;;;;9.40;7.43;;;;;26.00;100909.00;;;;5079104;28;20198;-80
2022/09/13 08:04:09;;;;;;;9.00;7.05;;;;;26.10;100898.00;;;;5080886;28;20659;-79
2022/09/13 08:06:42;;;;;;;13.23;6.88;;;;;26.10;100905.00;;;;5076098;28;20698;-80
2022/09/13 08:09:10;;;;;;;8.85;6.85;;;;;26.30;100907.00;;;;5070318;28;20640;-79
2022/09/13 08:11:39;;;;;;;6.60;5.72;;;;;26.30;100912.00;;;;5069942;28;20214;-80
2022/09/13 08:14:08;;;;;;;9.77;5.85;;;;;26.40;100905.00;;;;5074737;28;20429;-79
2022/09/13 08:16:36;;;;;;;7.45;5.10;;;;;26.50;100906.00;;;;5090236;28;20201;-79
2022/09/13 08:19:04;;;;;;;7.55;5.15;;;;;26.50;100910.00;;;;5090698;28;20712;-78
2022/09/13 08:21:36;;;;;;;8.50;5.25;;;;;26.60;100907.00;;;;5083001;28;20198;-78
2022/09/13 08:24:08;;;;;;;5.40;4.72;;;;;26.70;100914.00;;;;5079514;28;20279;-78
2022/09/13 08:26:36;;;;;;;5.22;4.38;;;;;26.80;100922.00;;;;5074244;28;20199;-79
2022/09/13 08:29:06;;;;;;;5.38;3.83;;;;;26.80;100919.00;;;;5080529;28;20237;-78
2022/09/13 08:31:34;;;;;;;4.53;3.10;;;;;26.90;100912.00;;;;5084718;28;20571;-79
2022/09/13 08:34:02;;;;;;;6.28;3.30;;;;;27.00;100912.00;;;;5084865;28;20210;-80
2022/09/13 08:36:29;;;;;;;4.30;3.13;;;;;27.00;100915.00;;;;5074663;28;20206;-79
2022/09/13 08:38:59;;;;;;;3.90;3.35;;;;;27.10;100915.00;;;;5075741;28;20732;-79
2022/09/13 08:42:00;;;;;;;2.58;2.20;;;;;27.00;100919.00;;;;5077095;28;20206;-79
2022/09/13 08:44:30;;;;;;;2.53;2.28;;;;;27.10;100922.00;;;;5026877;28;20664;-79
2022/09/13 08:47:04;;;;;;;2.70;2.20;;;;;27.10;100918.00;;;;5070366;28;20198;-79
2022/09/13 08:49:35;;;;;;;2.90;2.28;;;;;27.20;100915.00;;;;5070371;28;20214;-78
2022/09/13 08:52:22;;;;;;;2.25;2.05;;;;;27.20;100913.00;;;;5072112;28;20226;-78
2022/09/13 08:54:50;;;;;;;2.80;1.75;;;;;27.30;100914.00;;;;5086835;28;20198;-78
2022/09/13 08:57:26;;;;;;;2.78;2.15;;;;;27.30;100916.00;;;;5087665;28;20213;-78
2022/09/13 09:00:02;;;;;;;3.20;2.03;;;;;27.30;100919.00;;;;5080275;28;20207;-78
2022/09/13 09:02:49;;;;;;;2.80;2.53;;;;;27.40;100927.00;;;;5069888;28;20201;-81
2022/09/13 09:05:19;;;;;;;3.08;1.75;;;;;27.60;100929.00;;;;5075732;28;20194;-79
2022/09/13 09:07:51;;;;;;;3.63;1.80;;;;;27.60;100928.00;;;;5083279;28;20213;-79
2022/09/13 09:10:21;;;;;;;1.75;1.65;;;;;27.70;100935.00;;;;5086803;28;20272;-79
2022/09/13 09:12:53;;;;;;;2.22;1.88;;;;;27.80;100932.00;;;;5090356;28;20251;-79
2022/09/13 09:15:23;;;;;;;3.75;1.75;;;;;27.90;100937.00;;;;5088554;28;20202;-79
2022/09/13 09:17:57;;;;;;;2.00;1.30;;;;;28.00;100934.00;;;;5089402;28;20275;-79
2022/09/13 09:20:31;;;;;;;1.40;1.20;;;;;28.10;100939.00;;;;5085263;28;20672;-79
2022/09/13 09:23:07;;;;;;;1.40;1.08;;;;;28.10;100940.00;;;;5070423;28;20290;-80
2022/09/13 09:25:35;;;;;;;1.38;1.15;;;;;28.10;100946.00;;;;5068895;28;20194;-79
2022/09/13 09:28:12;;;;;;;2.83;1.33;;;;;28.00;100936.00;;;;5072403;28;20248;-79
2022/09/13 09:30:45;;;;;;;1.52;0.85;;;;;28.10;100930.00;;;;5068569;28;20230;-79
2022/09/13 09:33:36;;;;;;;1.90;1.05;;;;;28.00;100928.00;;;;5069040;28;20241;-80
2022/09/13 09:36:12;;;;;;;0.77;0.77;;;;;28.00;100931.00;;;;5069362;28;20689;-80
2022/09/13 09:38:41;;;;;;;1.77;0.95;;;;;28.10;100933.00;;;;5086423;28;20222;-80
2022/09/13 09:41:16;;;;;;;1.00;0.90;;;;;28.00;100926.00;;;;5088853;28;20205;-79
2022/09/13 09:43:52;;;;;;;2.25;0.80;;;;;28.00;100921.00;;;;5088030;28;20206;-79
2022/09/13 09:46:24;;;;;;;1.23;0.65;;;;;28.10;100922.00;;;;5088989;28;20194;-80
2022/09/13 09:48:56;;;;;;;1.10;0.65;;;;;28.10;100924.00;;;;5089400;28;20190;-79
2022/09/13 09:51:26;;;;;;;1.92;1.02;;;;;28.20;100922.00;;;;5078859;28;20685;-80
2022/09/13 09:54:00;;;;;;;1.38;0.75;;;;;28.20;100921.00;;;;5076156;28;20681;-80
2022/09/13 09:56:32;;;;;;;1.00;0.57;;;;;28.20;100915.00;;;;5088686;28;20190;-80
2022/09/13 09:59:01;;;;;;;0.52;0.52;;;;;28.30;100917.00;;;;5088754;28;20222;-79
2022/09/13 10:01:31;;;;;;;1.10;0.73;;;;;28.30;100909.00;;;;5088129;28;20203;-80
2022/09/13 10:04:20;;;;;;;1.05;0.60;;;;;28.30;100912.00;;;;5074988;28;20238;-80
2022/09/13 10:06:48;;;;;;;0.85;0.40;;;;;28.50;100909.00;;;;5068814;28;20265;-79
2022/09/13 10:09:18;;;;;;;0.60;0.40;;;;;28.50;100908.00;;;;5080586;28;20205;-80
2022/09/13 10:11:48;;;;;;;0.63;0.50;;;;;28.50;100914.00;;;;5088542;28;20203;-80
2022/09/13 10:14:35;;;;;;;1.98;0.55;;;;;28.40;100909.00;;;;5088750;28;20217;-80
2022/09/13 10:17:05;;;;;;;0.85;0.50;;;;;28.50;100909.00;;;;5087819;28;20198;-79
2022/09/13 10:19:33;;;;;;;0.50;0.40;;;;;28.60;100906.00;;;;5068856;28;20238;-80
2022/09/13 10:22:02;;;;;;;0.52;0.30;;;;;28.60;100907.00;;;;5072901;28;20203;-80
2022/09/13 10:24:30;;;;;;;1.63;0.52;;;;;28.70;100904.00;;;;5087748;28;20668;-80
2022/09/13 10:26:58;;;;;;;0.88;0.68;;;;;28.80;100903.00;;;;5079598;28;20720;-79
2022/09/13 10:29:28;;;;;;;0.73;0.40;;;;;28.80;100911.00;;;;5067286;28;20235;-80
2022/09/13 10:31:57;;;;;;;2.17;0.45;;;;;28.90;100903.00;;;;5066851;28;20214;-78
2022/09/13 10:34:29;;;;;;;0.77;0.47;;;;;28.90;100902.00;;;;5083130;28;20227;-79
2022/09/13 10:37:00;;;;;;;0.98;0.60;;;;;29.00;100902.00;;;;5069027;28;20202;-80
2022/09/13 10:39:30;;;;;;;1.70;0.57;;;;;29.00;100904.00;;;;5083240;28;20229;-80
2022/09/13 10:42:02;;;;;;;0.95;0.40;;;;;29.00;100901.00;;;;5088368;28;20190;-80
2022/09/13 10:44:39;;;;;;;1.05;0.60;;;;;29.00;100903.00;;;;5076493;28;20199;-80
2022/09/13 10:47:13;;;;;;;1.63;0.43;;;;;29.00;100901.00;;;;5085089;28;20198;-79
2022/09/13 10:49:48;;;;;;;1.70;0.57;;;;;29.00;100904.00;;;;5081445;28;20971;-78
2022/09/13 10:52:31;;;;;;;1.60;0.47;;;;;29.00;100893.00;;;;5081242;28;20197;-80
2022/09/13 10:55:30;;;;;;;0.80;0.45;;;;;29.00;100891.00;;;;5080939;28;20198;-79
2022/09/13 10:58:19;;;;;;;0.40;0.40;;;;;29.10;100889.00;;;;5086923;28;20202;-79
2022/09/13 11:01:03;;;;;;;0.47;0.40;;;;;29.10;100888.00;;;;5087886;28;20206;-78
2022/09/13 11:03:41;;;;;;;3.03;0.70;;;;;29.20;100888.00;;;;5087884;28;20198;-78
2022/09/13 11:06:15;;;;;;;2.00;0.50;;;;;29.30;100883.00;;;;5071429;28;20198;-78
2022/09/13 11:08:54;;;;;;;1.02;0.65;;;;;29.30;100891.00;;;;5083579;28;20205;-79
2022/09/13 11:11:30;;;;;;;1.02;0.50;;;;;29.30;100898.00;;;;5087193;28;20625;-79
2022/09/13 11:14:11;;;;;;;0.80;0.70;;;;;29.30;100902.00;;;;5087384;28;20717;-79
2022/09/13 11:16:54;;;;;;;1.23;0.80;;;;;29.30;100897.00;;;;5083113;28;20190;-78
2022/09/13 11:19:45;;;;;;;2.25;0.90;;;;;29.30;100898.00;;;;5087090;28;20226;-79
2022/09/13 11:22:34;;;;;;;1.15;0.75;;;;;29.30;100891.00;;;;5087230;28;20564;-79
2022/09/13 11:25:17;;;;;;;0.80;0.80;;;;;29.40;100898.00;;;;5088575;28;20202;-79
2022/09/13 11:27:53;;;;;;;1.77;0.88;;;;;29.50;100887.00;;;;5069049;28;20573;-79
2022/09/13 11:30:23;;;;;;;1.08;0.80;;;;;29.60;100893.00;;;;5078249;28;20708;-79
2022/09/13 11:33:03;;;;;;;0.93;0.60;;;;;29.60;100885.00;;;;5071263;28;20218;-78
2022/09/13 11:35:51;;;;;;;2.80;0.88;;;;;29.60;100884.00;;;;5084381;28;20206;-79
2022/09/13 11:38:36;;;;;;;0.65;0.65;;;;;29.70;100887.00;;;;5087727;28;20194;-80
2022/09/13 11:41:15;;;;;;;1.50;0.85;;;;;29.70;100884.00;;;;5087526;28;20206;-79
2022/09/13 11:44:05;;;;;;;1.10;1.00;;;;;29.60;100873.00;;;;5086528;28;20206;-79
2022/09/13 11:46:42;;;;;;;0.90;0.75;;;;;29.70;100880.00;;;;5087037;28;20212;-79
2022/09/13 11:49:28;;;;;;;1.48;1.00;;;;;29.60;100876.00;;;;5088060;28;20202;-79
2022/09/13 11:52:09;;;;;;;0.88;0.80;;;;;29.60;100881.00;;;;5075206;28;20194;-80
2022/09/13 11:54:52;;;;;;;2.00;0.98;;;;;29.50;100883.00;;;;5067137;28;20286;-79
2022/09/13 11:57:24;;;;;;;1.23;0.52;;;;;29.50;100882.00;;;;5066741;28;20699;-78
2022/09/13 11:59:55;;;;;;;0.60;0.55;;;;;29.50;100878.00;;;;5084518;28;20303;-78
2022/09/13 12:02:29;;;;;;;1.10;0.80;;;;;29.40;100880.00;;;;5087495;28;20203;-78
2022/09/13 12:05:02;;;;;;;1.35;0.60;;;;;29.40;100880.00;;;;5073479;28;20578;-78
2022/09/13 12:07:38;;;;;;;0.85;0.55;;;;;29.30;100880.00;;;;5067741;28;20203;-78
2022/09/13 12:10:14;;;;;;;1.05;0.70;;;;;29.30;100879.00;;;;5076421;28;20553;-78
2022/09/13 12:12:42;;;;;;;2.15;0.95;;;;;29.40;100878.00;;;;5086717;28;20672;-79
2022/09/13 12:15:21;;;;;;;0.80;0.70;;;;;29.30;100876.00;;;;5087143;28;20213;-79
2022/09/13 12:17:52;;;;;;;0.98;0.55;;;;;29.40;100877.00;;;;5077641;28;20207;-78
2022/09/13 12:20:29;;;;;;;1.02;0.73;;;;;29.50;100881.00;;;;5070886;28;20666;-80
2022/09/13 12:23:01;;;;;;;0.98;0.95;;;;;29.50;100879.00;;;;5090600;28;20194;-79
2022/09/13 12:25:36;;;;;;;2.90;0.60;;;;;29.50;100879.00;;;;5090421;28;20219;-80
2022/09/13 12:28:11;;;;;;;3.55;0.85;;;;;29.50;100880.00;;;;5090586;28;20205;-78
2022/09/13 12:30:45;;;;;;;1.13;0.60;;;;;29.50;100884.00;;;;5089847;28;20233;-79
2022/09/13 12:33:15;;;;;;;1.00;0.60;;;;;29.50;100878.00;;;;5089693;28;20218;-78